Terminal Aerodrome Forecast
Issued by NWS

Home | Current Version | Previous Version | Text Only | Print | Product List | Glossary Off
Versions: 1 2 3 4 5 6 7 8 9 10 11 12 13

575
FTUS43 KOAX 060520
TAFCDR
TAF
KCDR 060520Z 0606/0706 19015KT P6SM SCT250
     FM061500 18009KT P6SM SCT250
     FM062000 13009KT P6SM SCT250
     FM070100 05015KT P6SM VCSH OVC050=

USA.gov is the U.S. government's official web portal to all federal, state and local government web resources and services.